sensor_id;sensor_type;location;lat;lon;timestamp;P1;durP1;ratioP1;P2;durP2;ratioP2
21721;SDS011;11023;48.274;7.794;2023-07-20T00:01:25;2.33;;;1.50;;
21721;SDS011;11023;48.274;7.794;2023-07-20T00:03:51;1.98;;;1.20;;
21721;SDS011;11023;48.274;7.794;2023-07-20T00:06:26;2.13;;;1.25;;
21721;SDS011;11023;48.274;7.794;2023-07-20T00:08:55;2.22;;;1.15;;
21721;SDS011;11023;48.274;7.794;2023-07-20T00:11:24;2.40;;;1.50;;
21721;SDS011;11023;48.274;7.794;2023-07-20T00:13:53;2.13;;;1.50;;
21721;SDS011;11023;48.274;7.794;2023-07-20T00:16:18;3.33;;;1.40;;
21721;SDS011;11023;48.274;7.794;2023-07-20T00:18:44;3.40;;;1.38;;
21721;SDS011;11023;48.274;7.794;2023-07-20T00:21:10;1.65;;;1.10;;
21721;SDS011;11023;48.274;7.794;2023-07-20T00:23:37;1.85;;;1.25;;
21721;SDS011;11023;48.274;7.794;2023-07-20T00:26:03;3.28;;;1.40;;
21721;SDS011;11023;48.274;7.794;2023-07-20T00:28:29;2.58;;;1.75;;
21721;SDS011;11023;48.274;7.794;2023-07-20T00:30:55;4.00;;;1.35;;
21721;SDS011;11023;48.274;7.794;2023-07-20T00:33:20;2.38;;;1.30;;
21721;SDS011;11023;48.274;7.794;2023-07-20T00:35:46;2.30;;;1.63;;
21721;SDS011;11023;48.274;7.794;2023-07-20T00:38:13;3.10;;;1.63;;
21721;SDS011;11023;48.274;7.794;2023-07-20T00:40:40;3.20;;;1.58;;
21721;SDS011;11023;48.274;7.794;2023-07-20T00:43:09;2.97;;;1.20;;
21721;SDS011;11023;48.274;7.794;2023-07-20T00:45:35;1.85;;;1.30;;
21721;SDS011;11023;48.274;7.794;2023-07-20T00:48:02;2.20;;;1.10;;
21721;SDS011;11023;48.274;7.794;2023-07-20T00:50:32;1.83;;;1.50;;
21721;SDS011;11023;48.274;7.794;2023-07-20T00:53:00;3.88;;;1.90;;
21721;SDS011;11023;48.274;7.794;2023-07-20T00:55:30;3.50;;;1.77;;
21721;SDS011;11023;48.274;7.794;2023-07-20T00:57:58;3.90;;;1.70;;
21721;SDS011;11023;48.274;7.794;2023-07-20T01:00:24;3.22;;;1.40;;
21721;SDS011;11023;48.274;7.794;2023-07-20T01:02:50;2.22;;;1.35;;
21721;SDS011;11023;48.274;7.794;2023-07-20T01:05:16;1.77;;;1.10;;
21721;SDS011;11023;48.274;7.794;2023-07-20T01:10:20;2.83;;;1.55;;
21721;SDS011;11023;48.274;7.794;2023-07-20T01:12:51;3.55;;;1.60;;
21721;SDS011;11023;48.274;7.794;2023-07-20T01:15:20;3.50;;;1.13;;
21721;SDS011;11023;48.274;7.794;2023-07-20T01:17:45;1.48;;;1.15;;
21721;SDS011;11023;48.274;7.794;2023-07-20T01:20:13;1.40;;;1.02;;
21721;SDS011;11023;48.274;7.794;2023-07-20T01:33:41;2.90;;;1.27;;
21721;SDS011;11023;48.274;7.794;2023-07-20T01:36:08;2.92;;;1.40;;
21721;SDS011;11023;48.274;7.794;2023-07-20T01:38:35;2.97;;;1.65;;
21721;SDS011;11023;48.274;7.794;2023-07-20T01:41:02;3.30;;;1.10;;
21721;SDS011;11023;48.274;7.794;2023-07-20T01:43:28;5.20;;;1.60;;
21721;SDS011;11023;48.274;7.794;2023-07-20T01:45:54;2.05;;;1.30;;
21721;SDS011;11023;48.274;7.794;2023-07-20T01:48:20;2.10;;;1.52;;
21721;SDS011;11023;48.274;7.794;2023-07-20T01:50:45;3.25;;;1.10;;
21721;SDS011;11023;48.274;7.794;2023-07-20T01:53:11;2.85;;;1.60;;
21721;SDS011;11023;48.274;7.794;2023-07-20T01:55:37;1.80;;;1.33;;
21721;SDS011;11023;48.274;7.794;2023-07-20T01:58:03;1.48;;;1.20;;
21721;SDS011;11023;48.274;7.794;2023-07-20T02:00:28;1.85;;;1.20;;
21721;SDS011;11023;48.274;7.794;2023-07-20T02:02:54;2.65;;;1.35;;
21721;SDS011;11023;48.274;7.794;2023-07-20T02:05:20;4.45;;;1.20;;
21721;SDS011;11023;48.274;7.794;2023-07-20T02:07:45;5.07;;;1.38;;
21721;SDS011;11023;48.274;7.794;2023-07-20T02:10:11;1.60;;;1.30;;
21721;SDS011;11023;48.274;7.794;2023-07-20T02:12:37;3.50;;;1.38;;
21721;SDS011;11023;48.274;7.794;2023-07-20T02:15:03;1.98;;;1.42;;
21721;SDS011;11023;48.274;7.794;2023-07-20T02:17:29;5.05;;;1.38;;
21721;SDS011;11023;48.274;7.794;2023-07-20T02:19:55;2.90;;;1.40;;
21721;SDS011;11023;48.274;7.794;2023-07-20T02:22:22;3.65;;;1.55;;
21721;SDS011;11023;48.274;7.794;2023-07-20T02:24:48;5.85;;;1.40;;
21721;SDS011;11023;48.274;7.794;2023-07-20T02:27:15;2.95;;;1.50;;
21721;SDS011;11023;48.274;7.794;2023-07-20T02:29:41;2.90;;;1.60;;
21721;SDS011;11023;48.274;7.794;2023-07-20T02:32:08;3.95;;;1.73;;
21721;SDS011;11023;48.274;7.794;2023-07-20T02:34:36;1.20;;;1.10;;
21721;SDS011;11023;48.274;7.794;2023-07-20T02:37:02;2.95;;;1.48;;
21721;SDS011;11023;48.274;7.794;2023-07-20T02:39:28;3.10;;;1.65;;
21721;SDS011;11023;48.274;7.794;2023-07-20T02:41:54;3.58;;;1.40;;
21721;SDS011;11023;48.274;7.794;2023-07-20T02:44:20;2.63;;;1.50;;
21721;SDS011;11023;48.274;7.794;2023-07-20T02:46:45;2.25;;;1.35;;
21721;SDS011;11023;48.274;7.794;2023-07-20T02:49:11;6.95;;;2.03;;
21721;SDS011;11023;48.274;7.794;2023-07-20T02:51:37;2.38;;;1.30;;
21721;SDS011;11023;48.274;7.794;2023-07-20T02:54:03;1.75;;;1.15;;
21721;SDS011;11023;48.274;7.794;2023-07-20T02:56:28;1.98;;;1.25;;
21721;SDS011;11023;48.274;7.794;2023-07-20T02:58:54;1.83;;;1.40;;
21721;SDS011;11023;48.274;7.794;2023-07-20T03:01:20;2.30;;;1.60;;
21721;SDS011;11023;48.274;7.794;2023-07-20T03:03:45;1.65;;;1.45;;
21721;SDS011;11023;48.274;7.794;2023-07-20T03:06:15;2.40;;;1.23;;
21721;SDS011;11023;48.274;7.794;2023-07-20T03:08:44;2.58;;;1.73;;
21721;SDS011;11023;48.274;7.794;2023-07-20T03:11:12;2.00;;;1.30;;
21721;SDS011;11023;48.274;7.794;2023-07-20T03:13:40;1.85;;;1.45;;
21721;SDS011;11023;48.274;7.794;2023-07-20T03:16:07;2.22;;;1.63;;
21721;SDS011;11023;48.274;7.794;2023-07-20T03:18:36;1.77;;;1.33;;
21721;SDS011;11023;48.274;7.794;2023-07-20T03:21:03;1.98;;;1.20;;
21721;SDS011;11023;48.274;7.794;2023-07-20T03:23:30;3.60;;;1.35;;
21721;SDS011;11023;48.274;7.794;2023-07-20T03:25:55;2.13;;;1.50;;
21721;SDS011;11023;48.274;7.794;2023-07-20T03:28:21;2.17;;;1.23;;
21721;SDS011;11023;48.274;7.794;2023-07-20T03:30:52;2.35;;;1.20;;
21721;SDS011;11023;48.274;7.794;2023-07-20T03:33:30;2.10;;;1.05;;
21721;SDS011;11023;48.274;7.794;2023-07-20T03:35:57;1.52;;;1.15;;
21721;SDS011;11023;48.274;7.794;2023-07-20T03:38:23;2.83;;;1.55;;
21721;SDS011;11023;48.274;7.794;2023-07-20T03:43:20;3.47;;;1.58;;
21721;SDS011;11023;48.274;7.794;2023-07-20T03:45:48;3.72;;;1.38;;
21721;SDS011;11023;48.274;7.794;2023-07-20T03:48:18;2.03;;;1.35;;
21721;SDS011;11023;48.274;7.794;2023-07-20T03:50:46;2.80;;;1.60;;
21721;SDS011;11023;48.274;7.794;2023-07-20T03:53:13;2.17;;;1.20;;
21721;SDS011;11023;48.274;7.794;2023-07-20T03:55:40;2.22;;;1.25;;
21721;SDS011;11023;48.274;7.794;2023-07-20T03:58:07;2.70;;;1.33;;
21721;SDS011;11023;48.274;7.794;2023-07-20T04:00:33;2.60;;;1.50;;
21721;SDS011;11023;48.274;7.794;2023-07-20T04:02:59;2.50;;;1.30;;
21721;SDS011;11023;48.274;7.794;2023-07-20T04:05:25;3.13;;;1.50;;
21721;SDS011;11023;48.274;7.794;2023-07-20T04:07:51;3.25;;;1.30;;
21721;SDS011;11023;48.274;7.794;2023-07-20T04:10:17;1.73;;;1.48;;
21721;SDS011;11023;48.274;7.794;2023-07-20T04:12:44;3.35;;;1.92;;
21721;SDS011;11023;48.274;7.794;2023-07-20T04:15:12;1.58;;;1.20;;
21721;SDS011;11023;48.274;7.794;2023-07-20T04:17:38;2.03;;;1.63;;
21721;SDS011;11023;48.274;7.794;2023-07-20T04:20:04;2.53;;;1.15;;
21721;SDS011;11023;48.274;7.794;2023-07-20T04:22:31;2.63;;;1.48;;
21721;SDS011;11023;48.274;7.794;2023-07-20T04:24:56;2.05;;;1.38;;
21721;SDS011;11023;48.274;7.794;2023-07-20T04:27:22;2.65;;;1.38;;
21721;SDS011;11023;48.274;7.794;2023-07-20T04:29:48;3.55;;;1.52;;
21721;SDS011;11023;48.274;7.794;2023-07-20T04:32:13;2.00;;;1.33;;
21721;SDS011;11023;48.274;7.794;2023-07-20T04:34:39;3.13;;;1.52;;
21721;SDS011;11023;48.274;7.794;2023-07-20T04:37:05;2.35;;;1.48;;
21721;SDS011;11023;48.274;7.794;2023-07-20T04:39:30;3.72;;;1.80;;
21721;SDS011;11023;48.274;7.794;2023-07-20T04:41:56;1.95;;;1.30;;
21721;SDS011;11023;48.274;7.794;2023-07-20T04:44:22;1.67;;;1.20;;
21721;SDS011;11023;48.274;7.794;2023-07-20T04:46:48;1.95;;;1.40;;
21721;SDS011;11023;48.274;7.794;2023-07-20T04:49:14;2.28;;;1.33;;
21721;SDS011;11023;48.274;7.794;2023-07-20T04:51:40;1.75;;;1.15;;
21721;SDS011;11023;48.274;7.794;2023-07-20T04:54:05;2.72;;;1.58;;
21721;SDS011;11023;48.274;7.794;2023-07-20T04:56:31;4.50;;;1.42;;
21721;SDS011;11023;48.274;7.794;2023-07-20T04:58:58;1.95;;;1.25;;
21721;SDS011;11023;48.274;7.794;2023-07-20T05:01:23;1.55;;;1.20;;
21721;SDS011;11023;48.274;7.794;2023-07-20T05:03:49;5.30;;;1.55;;
21721;SDS011;11023;48.274;7.794;2023-07-20T05:06:15;2.88;;;1.60;;
21721;SDS011;11023;48.274;7.794;2023-07-20T05:08:41;2.92;;;1.35;;
21721;SDS011;11023;48.274;7.794;2023-07-20T05:11:06;3.17;;;1.30;;
21721;SDS011;11023;48.274;7.794;2023-07-20T05:13:33;2.13;;;1.45;;
21721;SDS011;11023;48.274;7.794;2023-07-20T05:15:58;5.30;;;1.30;;
21721;SDS011;11023;48.274;7.794;2023-07-20T05:18:24;1.60;;;1.25;;
21721;SDS011;11023;48.274;7.794;2023-07-20T05:20:50;2.67;;;1.33;;
21721;SDS011;11023;48.274;7.794;2023-07-20T05:23:19;3.10;;;1.50;;
21721;SDS011;11023;48.274;7.794;2023-07-20T05:25:45;1.85;;;1.13;;
21721;SDS011;11023;48.274;7.794;2023-07-20T05:28:11;2.95;;;1.25;;
21721;SDS011;11023;48.274;7.794;2023-07-20T05:30:36;1.60;;;1.05;;
21721;SDS011;11023;48.274;7.794;2023-07-20T05:33:02;3.78;;;1.90;;
21721;SDS011;11023;48.274;7.794;2023-07-20T05:35:28;2.70;;;1.80;;
21721;SDS011;11023;48.274;7.794;2023-07-20T05:37:54;4.70;;;1.40;;
21721;SDS011;11023;48.274;7.794;2023-07-20T05:40:20;1.50;;;1.15;;
21721;SDS011;11023;48.274;7.794;2023-07-20T05:42:46;2.15;;;1.42;;
21721;SDS011;11023;48.274;7.794;2023-07-20T05:45:17;1.52;;;1.40;;
21721;SDS011;11023;48.274;7.794;2023-07-20T05:47:43;2.55;;;1.60;;
21721;SDS011;11023;48.274;7.794;2023-07-20T05:50:08;3.20;;;1.30;;
21721;SDS011;11023;48.274;7.794;2023-07-20T05:52:34;1.50;;;0.90;;
21721;SDS011;11023;48.274;7.794;2023-07-20T05:55:00;2.78;;;1.65;;
21721;SDS011;11023;48.274;7.794;2023-07-20T05:57:26;1.90;;;1.30;;
21721;SDS011;11023;48.274;7.794;2023-07-20T05:59:51;2.20;;;1.25;;
21721;SDS011;11023;48.274;7.794;2023-07-20T06:02:17;2.28;;;1.38;;
21721;SDS011;11023;48.274;7.794;2023-07-20T06:04:43;3.35;;;1.77;;
21721;SDS011;11023;48.274;7.794;2023-07-20T06:07:08;2.45;;;1.52;;
21721;SDS011;11023;48.274;7.794;2023-07-20T06:09:34;2.90;;;1.48;;
21721;SDS011;11023;48.274;7.794;2023-07-20T06:12:00;2.60;;;1.25;;
21721;SDS011;11023;48.274;7.794;2023-07-20T06:14:25;2.38;;;1.58;;
21721;SDS011;11023;48.274;7.794;2023-07-20T06:16:51;2.58;;;1.58;;
21721;SDS011;11023;48.274;7.794;2023-07-20T06:19:17;4.00;;;1.65;;
21721;SDS011;11023;48.274;7.794;2023-07-20T06:21:43;2.30;;;1.17;;
21721;SDS011;11023;48.274;7.794;2023-07-20T06:24:09;1.88;;;1.35;;
21721;SDS011;11023;48.274;7.794;2023-07-20T06:26:34;2.20;;;1.42;;
21721;SDS011;11023;48.274;7.794;2023-07-20T06:29:04;2.28;;;1.60;;
21721;SDS011;11023;48.274;7.794;2023-07-20T06:31:31;4.30;;;1.83;;
21721;SDS011;11023;48.274;7.794;2023-07-20T06:33:57;4.03;;;1.77;;
21721;SDS011;11023;48.274;7.794;2023-07-20T06:36:23;2.90;;;1.80;;
21721;SDS011;11023;48.274;7.794;2023-07-20T06:38:50;2.22;;;1.50;;
21721;SDS011;11023;48.274;7.794;2023-07-20T06:41:16;3.85;;;1.80;;
21721;SDS011;11023;48.274;7.794;2023-07-20T06:43:42;3.00;;;1.65;;
21721;SDS011;11023;48.274;7.794;2023-07-20T06:46:08;2.85;;;1.60;;
21721;SDS011;11023;48.274;7.794;2023-07-20T06:48:34;2.58;;;1.40;;
21721;SDS011;11023;48.274;7.794;2023-07-20T06:50:59;2.33;;;1.60;;
21721;SDS011;11023;48.274;7.794;2023-07-20T06:53:25;2.65;;;1.70;;
21721;SDS011;11023;48.274;7.794;2023-07-20T06:55:50;2.70;;;1.88;;
21721;SDS011;11023;48.274;7.794;2023-07-20T06:58:16;1.75;;;1.35;;
21721;SDS011;11023;48.274;7.794;2023-07-20T07:00:43;3.85;;;1.80;;
21721;SDS011;11023;48.274;7.794;2023-07-20T07:03:09;2.53;;;1.50;;
21721;SDS011;11023;48.274;7.794;2023-07-20T07:05:36;3.08;;;1.60;;
21721;SDS011;11023;48.274;7.794;2023-07-20T07:08:02;1.73;;;1.30;;
21721;SDS011;11023;48.274;7.794;2023-07-20T07:10:31;3.15;;;1.60;;
21721;SDS011;11023;48.274;7.794;2023-07-20T07:12:57;2.33;;;1.20;;
21721;SDS011;11023;48.274;7.794;2023-07-20T07:15:23;1.83;;;1.30;;
21721;SDS011;11023;48.274;7.794;2023-07-20T07:17:49;1.65;;;1.35;;
21721;SDS011;11023;48.274;7.794;2023-07-20T07:20:15;2.42;;;1.33;;
21721;SDS011;11023;48.274;7.794;2023-07-20T07:22:41;3.47;;;1.38;;
21721;SDS011;11023;48.274;7.794;2023-07-20T07:25:09;4.85;;;1.55;;
21721;SDS011;11023;48.274;7.794;2023-07-20T07:27:35;3.70;;;1.50;;
21721;SDS011;11023;48.274;7.794;2023-07-20T07:30:01;3.83;;;1.83;;
21721;SDS011;11023;48.274;7.794;2023-07-20T07:32:27;2.08;;;1.63;;
21721;SDS011;11023;48.274;7.794;2023-07-20T07:34:53;4.13;;;1.50;;
21721;SDS011;11023;48.274;7.794;2023-07-20T07:37:19;9.95;;;1.70;;
21721;SDS011;11023;48.274;7.794;2023-07-20T07:39:45;2.00;;;1.33;;
21721;SDS011;11023;48.274;7.794;2023-07-20T07:42:11;4.90;;;1.58;;
21721;SDS011;11023;48.274;7.794;2023-07-20T07:44:37;1.70;;;1.15;;
21721;SDS011;11023;48.274;7.794;2023-07-20T07:47:03;2.15;;;1.50;;
21721;SDS011;11023;48.274;7.794;2023-07-20T07:49:29;4.30;;;1.42;;
21721;SDS011;11023;48.274;7.794;2023-07-20T07:51:55;1.75;;;1.08;;
21721;SDS011;11023;48.274;7.794;2023-07-20T07:54:20;2.20;;;1.33;;
21721;SDS011;11023;48.274;7.794;2023-07-20T07:56:46;1.85;;;1.27;;
21721;SDS011;11023;48.274;7.794;2023-07-20T07:59:12;2.90;;;1.45;;
21721;SDS011;11023;48.274;7.794;2023-07-20T08:01:37;1.88;;;1.40;;
21721;SDS011;11023;48.274;7.794;2023-07-20T08:04:03;1.92;;;1.20;;
21721;SDS011;11023;48.274;7.794;2023-07-20T08:06:29;5.63;;;1.60;;
21721;SDS011;11023;48.274;7.794;2023-07-20T08:08:54;2.22;;;1.50;;
21721;SDS011;11023;48.274;7.794;2023-07-20T08:11:20;3.30;;;1.80;;
21721;SDS011;11023;48.274;7.794;2023-07-20T08:13:46;2.72;;;1.60;;
21721;SDS011;11023;48.274;7.794;2023-07-20T08:16:11;1.77;;;1.40;;
21721;SDS011;11023;48.274;7.794;2023-07-20T08:18:37;2.60;;;1.17;;
21721;SDS011;11023;48.274;7.794;2023-07-20T08:21:03;1.95;;;1.35;;
21721;SDS011;11023;48.274;7.794;2023-07-20T08:23:28;2.28;;;1.35;;
21721;SDS011;11023;48.274;7.794;2023-07-20T08:25:54;1.77;;;1.25;;
21721;SDS011;11023;48.274;7.794;2023-07-20T08:28:20;3.90;;;1.25;;
21721;SDS011;11023;48.274;7.794;2023-07-20T08:30:47;4.13;;;1.48;;
21721;SDS011;11023;48.274;7.794;2023-07-20T08:33:14;2.45;;;1.30;;
21721;SDS011;11023;48.274;7.794;2023-07-20T08:35:41;5.47;;;1.38;;
21721;SDS011;11023;48.274;7.794;2023-07-20T08:38:07;2.67;;;1.05;;
21721;SDS011;11023;48.274;7.794;2023-07-20T08:40:34;3.90;;;1.20;;
21721;SDS011;11023;48.274;7.794;2023-07-20T08:43:08;2.45;;;1.45;;
21721;SDS011;11023;48.274;7.794;2023-07-20T08:45:35;1.65;;;1.23;;
21721;SDS011;11023;48.274;7.794;2023-07-20T08:48:03;1.45;;;1.20;;
21721;SDS011;11023;48.274;7.794;2023-07-20T08:50:32;1.83;;;1.20;;
21721;SDS011;11023;48.274;7.794;2023-07-20T08:52:58;1.73;;;1.38;;
21721;SDS011;11023;48.274;7.794;2023-07-20T08:55:25;2.00;;;1.00;;
21721;SDS011;11023;48.274;7.794;2023-07-20T08:57:56;1.65;;;1.35;;
21721;SDS011;11023;48.274;7.794;2023-07-20T09:00:26;1.42;;;1.10;;
21721;SDS011;11023;48.274;7.794;2023-07-20T09:02:54;1.23;;;0.80;;
21721;SDS011;11023;48.274;7.794;2023-07-20T09:05:21;2.10;;;1.08;;
21721;SDS011;11023;48.274;7.794;2023-07-20T09:07:48;2.20;;;1.35;;
21721;SDS011;11023;48.274;7.794;2023-07-20T09:10:14;1.70;;;1.20;;
21721;SDS011;11023;48.274;7.794;2023-07-20T09:12:42;1.35;;;1.08;;
21721;SDS011;11023;48.274;7.794;2023-07-20T09:15:09;1.02;;;0.88;;
21721;SDS011;11023;48.274;7.794;2023-07-20T09:17:36;2.42;;;1.00;;
21721;SDS011;11023;48.274;7.794;2023-07-20T09:20:05;1.80;;;0.90;;
21721;SDS011;11023;48.274;7.794;2023-07-20T09:22:36;2.97;;;1.10;;
21721;SDS011;11023;48.274;7.794;2023-07-20T09:25:12;1.73;;;1.25;;
21721;SDS011;11023;48.274;7.794;2023-07-20T09:27:40;2.40;;;1.05;;
21721;SDS011;11023;48.274;7.794;2023-07-20T09:30:08;2.90;;;1.02;;
21721;SDS011;11023;48.274;7.794;2023-07-20T09:32:42;1.02;;;0.90;;
21721;SDS011;11023;48.274;7.794;2023-07-20T09:35:19;2.20;;;1.10;;
21721;SDS011;11023;48.274;7.794;2023-07-20T09:37:57;1.20;;;0.90;;
21721;SDS011;11023;48.274;7.794;2023-07-20T09:40:24;2.58;;;1.23;;
21721;SDS011;11023;48.274;7.794;2023-07-20T09:42:51;2.13;;;0.85;;
21721;SDS011;11023;48.274;7.794;2023-07-20T09:45:27;1.65;;;1.08;;
21721;SDS011;11023;48.274;7.794;2023-07-20T09:48:04;3.92;;;1.13;;
21721;SDS011;11023;48.274;7.794;2023-07-20T09:50:33;1.05;;;0.77;;
21721;SDS011;11023;48.274;7.794;2023-07-20T09:53:14;1.85;;;0.85;;
21721;SDS011;11023;48.274;7.794;2023-07-20T09:55:43;1.48;;;0.95;;
21721;SDS011;11023;48.274;7.794;2023-07-20T09:58:09;2.10;;;1.20;;
21721;SDS011;11023;48.274;7.794;2023-07-20T10:00:36;2.88;;;1.00;;
21721;SDS011;11023;48.274;7.794;2023-07-20T10:03:03;2.22;;;0.73;;
21721;SDS011;11023;48.274;7.794;2023-07-20T10:05:33;1.67;;;0.90;;
21721;SDS011;11023;48.274;7.794;2023-07-20T10:08:01;2.92;;;1.10;;
21721;SDS011;11023;48.274;7.794;2023-07-20T10:10:29;2.20;;;0.98;;
21721;SDS011;11023;48.274;7.794;2023-07-20T10:13:01;2.08;;;1.10;;
21721;SDS011;11023;48.274;7.794;2023-07-20T10:15:29;3.88;;;1.10;;
21721;SDS011;11023;48.274;7.794;2023-07-20T10:20:30;0.82;;;0.82;;
21721;SDS011;11023;48.274;7.794;2023-07-20T10:22:58;1.15;;;0.80;;
21721;SDS011;11023;48.274;7.794;2023-07-20T10:25:24;1.45;;;0.98;;
21721;SDS011;11023;48.274;7.794;2023-07-20T10:27:51;1.15;;;0.80;;
21721;SDS011;11023;48.274;7.794;2023-07-20T10:30:17;2.88;;;0.90;;
21721;SDS011;11023;48.274;7.794;2023-07-20T10:32:44;1.02;;;0.77;;
21721;SDS011;11023;48.274;7.794;2023-07-20T10:35:14;1.23;;;0.82;;
21721;SDS011;11023;48.274;7.794;2023-07-20T10:37:48;1.20;;;0.77;;
21721;SDS011;11023;48.274;7.794;2023-07-20T10:40:32;1.30;;;0.98;;
21721;SDS011;11023;48.274;7.794;2023-07-20T10:43:05;0.90;;;0.90;;
21721;SDS011;11023;48.274;7.794;2023-07-20T10:45:53;1.00;;;0.70;;
21721;SDS011;11023;48.274;7.794;2023-07-20T10:48:20;3.33;;;1.00;;
21721;SDS011;11023;48.274;7.794;2023-07-20T10:53:37;0.90;;;0.80;;
21721;SDS011;11023;48.274;7.794;2023-07-20T10:56:11;1.02;;;0.88;;
21721;SDS011;11023;48.274;7.794;2023-07-20T10:58:39;1.08;;;0.85;;
21721;SDS011;11023;48.274;7.794;2023-07-20T11:01:06;1.05;;;0.95;;
21721;SDS011;11023;48.274;7.794;2023-07-20T11:03:33;1.63;;;1.10;;
21721;SDS011;11023;48.274;7.794;2023-07-20T11:13:55;1.73;;;1.20;;
21721;SDS011;11023;48.274;7.794;2023-07-20T11:16:37;1.42;;;1.10;;
21721;SDS011;11023;48.274;7.794;2023-07-20T11:19:04;1.80;;;1.08;;
21721;SDS011;11023;48.274;7.794;2023-07-20T11:21:35;1.65;;;1.10;;
21721;SDS011;11023;48.274;7.794;2023-07-20T11:24:06;2.58;;;0.90;;
21721;SDS011;11023;48.274;7.794;2023-07-20T11:26:42;1.90;;;1.20;;
21721;SDS011;11023;48.274;7.794;2023-07-20T11:29:09;1.20;;;1.00;;
21721;SDS011;11023;48.274;7.794;2023-07-20T11:31:35;1.02;;;0.85;;
21721;SDS011;11023;48.274;7.794;2023-07-20T11:34:05;0.82;;;0.80;;
21721;SDS011;11023;48.274;7.794;2023-07-20T11:36:31;2.30;;;0.82;;
21721;SDS011;11023;48.274;7.794;2023-07-20T11:38:58;2.33;;;0.95;;
21721;SDS011;11023;48.274;7.794;2023-07-20T11:41:25;0.93;;;0.85;;
21721;SDS011;11023;48.274;7.794;2023-07-20T11:43:54;1.08;;;0.68;;
21721;SDS011;11023;48.274;7.794;2023-07-20T11:46:19;1.30;;;0.75;;
21721;SDS011;11023;48.274;7.794;2023-07-20T11:48:45;1.80;;;1.13;;
21721;SDS011;11023;48.274;7.794;2023-07-20T11:51:15;2.17;;;0.95;;
21721;SDS011;11023;48.274;7.794;2023-07-20T11:53:42;2.75;;;1.00;;
21721;SDS011;11023;48.274;7.794;2023-07-20T11:56:09;1.42;;;0.90;;
21721;SDS011;11023;48.274;7.794;2023-07-20T11:58:36;2.00;;;0.88;;
21721;SDS011;11023;48.274;7.794;2023-07-20T12:01:06;1.50;;;0.90;;
21721;SDS011;11023;48.274;7.794;2023-07-20T12:03:32;1.42;;;0.90;;
21721;SDS011;11023;48.274;7.794;2023-07-20T12:06:05;1.10;;;0.80;;
21721;SDS011;11023;48.274;7.794;2023-07-20T12:08:32;1.65;;;0.90;;
21721;SDS011;11023;48.274;7.794;2023-07-20T12:10:58;1.52;;;1.13;;
21721;SDS011;11023;48.274;7.794;2023-07-20T12:13:23;0.82;;;0.75;;
21721;SDS011;11023;48.274;7.794;2023-07-20T12:16:06;1.08;;;0.90;;
21721;SDS011;11023;48.274;7.794;2023-07-20T12:18:34;1.98;;;0.82;;
21721;SDS011;11023;48.274;7.794;2023-07-20T12:21:01;2.50;;;0.82;;
21721;SDS011;11023;48.274;7.794;2023-07-20T12:23:34;1.20;;;0.95;;
21721;SDS011;11023;48.274;7.794;2023-07-20T12:26:07;2.58;;;1.05;;
21721;SDS011;11023;48.274;7.794;2023-07-20T12:28:39;0.82;;;0.77;;
21721;SDS011;11023;48.274;7.794;2023-07-20T12:31:08;0.52;;;0.52;;
21721;SDS011;11023;48.274;7.794;2023-07-20T12:33:36;1.23;;;0.88;;
21721;SDS011;11023;48.274;7.794;2023-07-20T12:36:03;1.23;;;0.80;;
21721;SDS011;11023;48.274;7.794;2023-07-20T12:38:29;1.70;;;0.93;;
21721;SDS011;11023;48.274;7.794;2023-07-20T12:40:56;1.00;;;0.90;;
21721;SDS011;11023;48.274;7.794;2023-07-20T12:43:23;1.45;;;0.90;;
21721;SDS011;11023;48.274;7.794;2023-07-20T12:45:49;1.70;;;0.90;;
21721;SDS011;11023;48.274;7.794;2023-07-20T12:48:14;1.17;;;0.73;;
21721;SDS011;11023;48.274;7.794;2023-07-20T12:50:40;1.08;;;0.88;;
21721;SDS011;11023;48.274;7.794;2023-07-20T12:53:06;1.20;;;1.00;;
21721;SDS011;11023;48.274;7.794;2023-07-20T12:55:32;1.25;;;1.10;;
21721;SDS011;11023;48.274;7.794;2023-07-20T12:57:57;1.17;;;0.80;;
21721;SDS011;11023;48.274;7.794;2023-07-20T13:00:23;1.15;;;0.82;;
21721;SDS011;11023;48.274;7.794;2023-07-20T13:02:49;1.00;;;0.80;;
21721;SDS011;11023;48.274;7.794;2023-07-20T13:05:15;1.42;;;0.90;;
21721;SDS011;11023;48.274;7.794;2023-07-20T13:07:41;0.85;;;0.80;;
21721;SDS011;11023;48.274;7.794;2023-07-20T13:10:08;2.30;;;1.00;;
21721;SDS011;11023;48.274;7.794;2023-07-20T13:12:35;1.15;;;0.88;;
21721;SDS011;11023;48.274;7.794;2023-07-20T13:15:02;1.60;;;0.77;;
21721;SDS011;11023;48.274;7.794;2023-07-20T13:17:30;0.60;;;0.60;;
21721;SDS011;11023;48.274;7.794;2023-07-20T13:20:00;1.55;;;1.08;;
21721;SDS011;11023;48.274;7.794;2023-07-20T13:22:27;0.90;;;0.80;;
21721;SDS011;11023;48.274;7.794;2023-07-20T13:24:53;3.83;;;0.80;;
21721;SDS011;11023;48.274;7.794;2023-07-20T13:27:19;1.45;;;1.00;;
21721;SDS011;11023;48.274;7.794;2023-07-20T13:29:45;3.72;;;0.82;;
21721;SDS011;11023;48.274;7.794;2023-07-20T13:32:14;1.48;;;0.63;;
21721;SDS011;11023;48.274;7.794;2023-07-20T13:34:40;1.38;;;0.90;;
21721;SDS011;11023;48.274;7.794;2023-07-20T13:37:06;1.13;;;0.82;;
21721;SDS011;11023;48.274;7.794;2023-07-20T13:39:33;1.00;;;0.70;;
21721;SDS011;11023;48.274;7.794;2023-07-20T13:41:59;1.83;;;0.73;;
21721;SDS011;11023;48.274;7.794;2023-07-20T13:44:26;1.00;;;0.65;;
21721;SDS011;11023;48.274;7.794;2023-07-20T13:46:52;1.52;;;1.00;;
21721;SDS011;11023;48.274;7.794;2023-07-20T13:49:18;0.95;;;0.73;;
21721;SDS011;11023;48.274;7.794;2023-07-20T13:51:43;0.95;;;0.85;;
21721;SDS011;11023;48.274;7.794;2023-07-20T13:54:09;0.95;;;0.60;;
21721;SDS011;11023;48.274;7.794;2023-07-20T13:56:36;2.13;;;1.00;;
21721;SDS011;11023;48.274;7.794;2023-07-20T13:59:02;1.00;;;0.93;;
21721;SDS011;11023;48.274;7.794;2023-07-20T14:01:28;1.05;;;0.70;;
21721;SDS011;11023;48.274;7.794;2023-07-20T14:03:55;0.95;;;0.82;;
21721;SDS011;11023;48.274;7.794;2023-07-20T14:06:21;1.45;;;1.15;;
21721;SDS011;11023;48.274;7.794;2023-07-20T14:08:47;1.77;;;1.20;;
21721;SDS011;11023;48.274;7.794;2023-07-20T14:11:14;1.25;;;0.90;;
21721;SDS011;11023;48.274;7.794;2023-07-20T14:13:40;0.73;;;0.60;;
21721;SDS011;11023;48.274;7.794;2023-07-20T14:16:06;1.55;;;0.85;;
21721;SDS011;11023;48.274;7.794;2023-07-20T14:18:33;1.73;;;0.90;;
21721;SDS011;11023;48.274;7.794;2023-07-20T14:20:59;2.45;;;1.13;;
21721;SDS011;11023;48.274;7.794;2023-07-20T14:23:25;2.17;;;0.70;;
21721;SDS011;11023;48.274;7.794;2023-07-20T14:25:50;2.65;;;0.60;;
21721;SDS011;11023;48.274;7.794;2023-07-20T14:28:16;3.13;;;0.90;;
21721;SDS011;11023;48.274;7.794;2023-07-20T14:30:41;0.80;;;0.80;;
21721;SDS011;11023;48.274;7.794;2023-07-20T14:33:07;1.02;;;0.80;;
21721;SDS011;11023;48.274;7.794;2023-07-20T14:35:33;1.17;;;0.93;;
21721;SDS011;11023;48.274;7.794;2023-07-20T14:37:59;1.17;;;0.73;;
21721;SDS011;11023;48.274;7.794;2023-07-20T14:40:25;0.85;;;0.63;;
21721;SDS011;11023;48.274;7.794;2023-07-20T14:42:51;2.15;;;0.88;;
21721;SDS011;11023;48.274;7.794;2023-07-20T14:45:17;1.65;;;0.93;;
21721;SDS011;11023;48.274;7.794;2023-07-20T14:47:43;0.75;;;0.70;;
21721;SDS011;11023;48.274;7.794;2023-07-20T14:50:10;1.05;;;0.95;;
21721;SDS011;11023;48.274;7.794;2023-07-20T14:52:36;1.65;;;0.60;;
21721;SDS011;11023;48.274;7.794;2023-07-20T14:55:02;0.70;;;0.70;;
21721;SDS011;11023;48.274;7.794;2023-07-20T14:57:27;0.93;;;0.80;;
21721;SDS011;11023;48.274;7.794;2023-07-20T14:59:53;0.60;;;0.60;;
21721;SDS011;11023;48.274;7.794;2023-07-20T15:02:20;1.08;;;0.98;;
21721;SDS011;11023;48.274;7.794;2023-07-20T15:04:48;1.30;;;0.70;;
21721;SDS011;11023;48.274;7.794;2023-07-20T15:07:18;1.05;;;0.80;;
21721;SDS011;11023;48.274;7.794;2023-07-20T15:09:45;0.82;;;0.82;;
21721;SDS011;11023;48.274;7.794;2023-07-20T15:12:11;1.90;;;1.02;;
21721;SDS011;11023;48.274;7.794;2023-07-20T15:14:41;1.00;;;0.90;;
21721;SDS011;11023;48.274;7.794;2023-07-20T15:17:08;3.38;;;1.15;;